createdAt,value
2023-05-04T00:01:57.253Z,83.52
2023-05-04T00:07:00.965Z,83.67
2023-05-04T00:12:05.272Z,84.95
2023-05-04T00:17:09.485Z,85.80
2023-05-04T00:22:11.364Z,87.11
2023-05-04T00:27:15.340Z,87.25
2023-05-04T00:32:17.041Z,87.75
2023-05-04T00:37:18.977Z,87.97
2023-05-04T00:42:20.664Z,88.95
2023-05-04T00:47:25.301Z,89.65
2023-05-04T00:52:29.653Z,89.41
2023-05-04T00:57:33.664Z,90.35
2023-05-04T01:02:37.666Z,90.26
2023-05-04T01:07:51.417Z,91.35
2023-05-04T01:13:10.140Z,91.50
2023-05-04T01:18:14.381Z,91.68
2023-05-04T01:23:16.618Z,92.24
2023-05-04T01:28:39.268Z,93.37
2023-05-04T01:33:43.769Z,92.84
2023-05-04T01:38:52.308Z,92.65
2023-05-04T01:43:54.408Z,92.72
2023-05-04T01:48:58.449Z,93.01
2023-05-04T01:54:00.306Z,92.90
2023-05-04T01:59:04.322Z,93.51
2023-05-04T02:04:06.191Z,94.13
2023-05-04T02:09:08.091Z,94.11
2023-05-04T02:14:10.090Z,93.53
2023-05-04T02:19:12.872Z,94.17
2023-05-04T02:24:14.555Z,94.15
2023-05-04T02:29:16.376Z,94.93
2023-05-04T02:34:20.497Z,94.73
2023-05-04T02:39:24.645Z,95.14
2023-05-04T02:44:29.103Z,95.54
2023-05-04T02:49:33.069Z,95.82
2023-05-04T02:54:34.931Z,96.68
2023-05-04T02:59:38.922Z,96.66
2023-05-04T03:04:40.729Z,96.58
2023-05-04T03:09:48.049Z,97.02
2023-05-04T03:14:52.152Z,96.83
2023-05-04T03:19:57.147Z,97.40
2023-05-04T03:25:00.482Z,97.82
2023-05-04T03:30:08.658Z,97.83
2023-05-04T03:35:12.790Z,98.71
2023-05-04T03:40:22.441Z,99.11
2023-05-04T03:45:28.484Z,99.11
2023-05-04T03:50:32.007Z,98.92
2023-05-04T03:55:33.811Z,100.00
2023-05-04T04:00:35.732Z,100.00
2023-05-04T04:05:45.323Z,100.00
2023-05-04T04:10:49.320Z,100.00
2023-05-04T04:15:53.640Z,100.00
2023-05-04T04:20:55.532Z,100.00
2023-05-04T04:25:57.683Z,99.69
2023-05-04T04:30:59.914Z,99.81
2023-05-04T04:36:04.071Z,99.31
2023-05-04T04:41:05.891Z,99.13
2023-05-04T04:46:12.693Z,99.22
2023-05-04T04:51:17.382Z,98.40
2023-05-04T04:56:21.629Z,97.83
2023-05-04T05:01:27.301Z,96.78
2023-05-04T05:06:29.125Z,96.20
2023-05-04T05:11:30.809Z,94.61
2023-05-04T05:16:32.796Z,94.57
2023-05-04T05:21:36.556Z,93.51
2023-05-04T05:26:38.465Z,92.79
2023-05-04T05:31:42.699Z,92.86
2023-05-04T05:36:44.764Z,92.02
2023-05-04T05:41:48.508Z,92.03
2023-05-04T05:46:50.235Z,90.65
2023-05-04T05:51:52.362Z,90.19
2023-05-04T05:56:54.112Z,90.31
2023-05-04T06:01:56.121Z,88.67
2023-05-04T06:07:00.149Z,88.17
2023-05-04T06:12:12.149Z,87.64
2023-05-04T06:17:17.428Z,84.71
2023-05-04T06:22:19.103Z,84.66
2023-05-04T06:27:24.205Z,83.42
2023-05-04T06:32:26.424Z,82.40
2023-05-04T06:37:35.438Z,82.21
2023-05-04T06:42:40.121Z,81.35
2023-05-04T06:47:44.062Z,80.80
2023-05-04T06:52:46.457Z,81.01
2023-05-04T06:57:48.199Z,81.12
2023-05-04T07:02:54.550Z,80.09
2023-05-04T07:07:59.057Z,79.12
2023-05-04T07:13:03.489Z,79.84
2023-05-04T07:18:07.647Z,79.33
2023-05-04T07:23:09.332Z,78.15
2023-05-04T07:28:11.191Z,76.89
2023-05-04T07:33:13.760Z,75.91
2023-05-04T07:38:15.657Z,75.57
2023-05-04T07:43:17.465Z,74.92
2023-05-04T07:48:19.728Z,74.11
2023-05-04T07:53:25.602Z,74.33
2023-05-04T07:58:30.326Z,74.06
2023-05-04T08:03:32.311Z,74.51
2023-05-04T08:08:36.338Z,74.12
2023-05-04T08:13:38.047Z,74.40
2023-05-04T08:18:42.117Z,74.13
2023-05-04T08:23:44.102Z,74.13
2023-05-04T08:28:48.941Z,73.86
2023-05-04T08:33:51.625Z,73.52
2023-05-04T08:38:53.726Z,73.20
2023-05-04T08:44:03.693Z,72.02
2023-05-04T08:49:07.807Z,71.09
2023-05-04T08:54:16.289Z,71.97
2023-05-04T08:59:22.443Z,71.96
2023-05-04T09:04:25.524Z,70.01
2023-05-04T09:09:32.249Z,68.86
2023-05-04T09:14:35.841Z,68.14
2023-05-04T09:19:38.939Z,66.73
2023-05-04T09:24:43.587Z,66.91
2023-05-04T09:29:53.567Z,64.95
2023-05-04T09:34:57.805Z,64.13
2023-05-04T09:39:59.655Z,64.10
2023-05-04T09:45:05.817Z,63.55
2023-05-04T09:50:13.035Z,63.57
2023-05-04T09:55:16.346Z,63.19
2023-05-04T10:00:20.525Z,61.91
2023-05-04T10:05:28.593Z,61.50
2023-05-04T10:10:33.792Z,60.33
2023-05-04T10:15:53.132Z,57.80
2023-05-04T10:21:16.560Z,58.64
2023-05-04T10:26:47.728Z,56.66
2023-05-04T10:31:49.697Z,54.95
2023-05-04T10:36:53.677Z,55.97
2023-05-04T10:41:59.238Z,54.48
2023-05-04T10:47:02.011Z,53.09
2023-05-04T10:52:16.268Z,53.05
2023-05-04T10:57:18.283Z,53.07
2023-05-04T11:02:24.400Z,52.15
2023-05-04T11:07:37.771Z,50.12
2023-05-04T11:12:39.753Z,51.44
2023-05-04T11:17:54.410Z,50.05
2023-05-04T11:22:56.225Z,48.49
2023-05-04T11:28:01.483Z,48.60
2023-05-04T11:33:05.280Z,47.46
2023-05-04T11:38:09.947Z,48.47
2023-05-04T11:43:12.661Z,47.45
2023-05-04T11:48:16.563Z,47.71
2023-05-04T11:53:23.313Z,47.65
2023-05-04T11:58:25.743Z,45.73
2023-05-04T12:03:43.238Z,44.91
2023-05-04T12:09:01.909Z,42.59
2023-05-04T12:14:03.621Z,40.96
2023-05-04T12:19:10.987Z,37.75
2023-05-04T12:24:13.215Z,35.63
2023-05-04T12:29:17.215Z,35.04
2023-05-04T12:34:18.917Z,32.67
2023-05-04T12:39:21.045Z,32.09
2023-05-04T12:44:25.622Z,29.97
2023-05-04T12:49:27.486Z,29.71
2023-05-04T12:54:29.387Z,27.81
2023-05-04T12:59:35.863Z,26.75
2023-05-04T13:04:37.736Z,26.08
2023-05-04T13:09:40.030Z,25.04
2023-05-04T13:14:41.724Z,24.12
2023-05-04T13:19:43.406Z,23.81
2023-05-04T13:24:47.396Z,23.64
2023-05-04T13:29:54.048Z,23.11
2023-05-04T13:34:58.198Z,22.62
2023-05-04T13:40:02.000Z,22.74
2023-05-04T13:45:07.083Z,21.94
2023-05-04T13:50:11.389Z,22.07
2023-05-04T13:55:16.826Z,21.93
2023-05-04T14:00:18.826Z,20.37
2023-05-04T14:05:20.693Z,21.17
2023-05-04T14:10:22.516Z,21.11
2023-05-04T14:15:27.684Z,19.65
2023-05-04T14:20:29.488Z,21.01
2023-05-04T14:25:35.918Z,18.53
2023-05-04T14:30:37.654Z,17.95
2023-05-04T14:35:43.676Z,16.66
2023-05-04T14:40:48.350Z,16.78
2023-05-04T14:45:51.241Z,16.59
2023-05-04T14:50:56.707Z,16.22
2023-05-04T14:56:01.066Z,16.79
2023-05-04T15:01:06.093Z,17.63
2023-05-04T15:06:12.551Z,17.11
2023-05-04T15:11:19.392Z,16.43
2023-05-04T15:16:30.019Z,17.22
2023-05-04T15:21:34.262Z,17.60
2023-05-04T15:26:36.126Z,19.64
2023-05-04T15:31:38.559Z,20.93
2023-05-04T15:36:40.536Z,20.46
2023-05-04T15:41:42.988Z,21.14
2023-05-04T15:46:46.927Z,22.85
2023-05-04T15:51:48.658Z,22.72
2023-05-04T15:56:53.106Z,24.11
2023-05-04T16:01:57.831Z,24.38
2023-05-04T16:06:59.570Z,24.56
2023-05-04T16:12:05.411Z,25.82
2023-05-04T16:17:07.516Z,25.90
2023-05-04T16:22:12.228Z,26.28
2023-05-04T16:27:18.876Z,27.66
2023-05-04T16:32:21.279Z,27.96
2023-05-04T16:37:25.358Z,30.25
2023-05-04T16:42:29.119Z,32.26
2023-05-04T16:47:31.128Z,33.15
2023-05-04T16:52:34.957Z,34.63
2023-05-04T16:57:39.030Z,35.70
2023-05-04T17:02:40.884Z,36.37
2023-05-04T17:07:43.630Z,37.53
2023-05-04T17:12:45.440Z,37.06
2023-05-04T17:17:49.689Z,37.87
2023-05-04T17:23:01.769Z,38.78
2023-05-04T17:28:05.961Z,39.79
2023-05-04T17:33:10.021Z,39.80
2023-05-04T17:38:11.753Z,41.57
2023-05-04T17:43:13.506Z,41.66
2023-05-04T17:48:16.328Z,42.70
2023-05-04T17:53:20.276Z,43.34
2023-05-04T17:58:24.993Z,44.39
2023-05-04T18:03:26.931Z,44.91
2023-05-04T18:08:30.811Z,45.73
2023-05-04T18:13:32.585Z,46.35
2023-05-04T18:18:39.044Z,46.92
2023-05-04T18:23:40.885Z,47.01
2023-05-04T18:28:45.306Z,47.47
2023-05-04T18:33:47.211Z,48.67
2023-05-04T18:38:53.308Z,50.12
2023-05-04T18:43:56.161Z,50.50
2023-05-04T18:49:02.737Z,52.93
2023-05-04T18:54:04.623Z,53.50
2023-05-04T18:59:09.558Z,54.74
2023-05-04T19:04:13.582Z,55.74
2023-05-04T19:09:17.946Z,56.03
2023-05-04T19:14:19.780Z,55.82
2023-05-04T19:19:22.217Z,56.79
2023-05-04T19:24:26.321Z,58.24
2023-05-04T19:29:30.233Z,58.53
2023-05-04T19:34:34.198Z,58.47
2023-05-04T19:39:36.646Z,59.82
2023-05-04T19:44:40.995Z,60.29
2023-05-04T19:49:48.004Z,60.83
2023-05-04T19:54:53.623Z,62.01
2023-05-04T19:59:58.630Z,62.61
2023-05-04T20:05:03.256Z,63.62
2023-05-04T20:10:08.792Z,64.75
2023-05-04T20:15:15.803Z,65.41
2023-05-04T20:20:20.361Z,65.10
2023-05-04T20:25:22.867Z,66.21
2023-05-04T20:30:29.075Z,66.39
2023-05-04T20:35:31.035Z,67.23
2023-05-04T20:40:37.640Z,67.77
2023-05-04T20:45:39.363Z,67.43
2023-05-04T20:50:41.117Z,67.51
2023-05-04T20:55:43.621Z,67.37
2023-05-04T21:00:45.257Z,67.57
2023-05-04T21:05:51.624Z,68.76
2023-05-04T21:10:56.723Z,68.71
2023-05-04T21:15:59.814Z,69.44
2023-05-04T21:21:04.987Z,68.97
2023-05-04T21:26:09.190Z,69.99
2023-05-04T21:31:16.120Z,70.21
2023-05-04T21:36:20.151Z,70.20
2023-05-04T21:41:27.007Z,70.47
2023-05-04T21:46:28.711Z,70.75
2023-05-04T21:51:30.615Z,71.54
2023-05-04T21:56:32.571Z,71.24
2023-05-04T22:01:34.246Z,72.09
2023-05-04T22:06:36.745Z,72.45
2023-05-04T22:11:41.482Z,71.53
2023-05-04T22:16:43.697Z,72.86
2023-05-04T22:21:48.321Z,72.54
2023-05-04T22:26:52.375Z,72.66
2023-05-04T22:31:57.062Z,73.21
2023-05-04T22:37:03.424Z,74.60
2023-05-04T22:42:09.744Z,75.19
2023-05-04T22:47:11.752Z,74.93
2023-05-04T22:52:13.459Z,76.42
2023-05-04T22:57:19.911Z,76.33
2023-05-04T23:02:24.037Z,77.35
2023-05-04T23:07:25.988Z,78.36
2023-05-04T23:12:28.107Z,78.96
2023-05-04T23:17:33.921Z,80.52
2023-05-04T23:22:37.850Z,80.54
2023-05-04T23:27:42.099Z,81.04
2023-05-04T23:32:43.908Z,82.09
2023-05-04T23:37:45.622Z,82.10
2023-05-04T23:42:52.833Z,83.19
2023-05-04T23:47:59.348Z,83.46
2023-05-04T23:53:03.295Z,83.72
2023-05-04T23:58:05.029Z,85.44
